Time;durP1;ratioP1;P1;durP2;ratioP2;P2;SDS_P1;SDS_P2;PMS_P1;PMS_P2;Temp;Humidity;BMP_temperature;BMP_pressure;BME280_temperature;BME280_humidity;BME280_pressure;Samples;Min_cycle;Max_cycle;Signal;HPM_P1;HPM_P2
2022/07/18 00:00:54;;;;;;;3.10;2.20;;;;;;;17.28;57.95;98891.72;5056908;28;20212;-72
2022/07/18 00:03:20;;;;;;;2.97;2.37;;;;;;;17.23;58.09;98888.56;5057064;28;20212;-72
2022/07/18 00:05:47;;;;;;;2.60;1.90;;;;;;;17.17;57.92;98887.28;5056599;28;20216;-72
2022/07/18 00:08:13;;;;;;;2.43;1.93;;;;;;;17.16;58.51;98887.41;5057967;28;20212;-72
2022/07/18 00:10:39;;;;;;;2.47;1.90;;;;;;;17.14;58.59;98884.84;5056748;28;20220;-72
2022/07/18 00:13:06;;;;;;;2.30;1.97;;;;;;;17.12;58.36;98886.81;5055737;28;20705;-73
2022/07/18 00:15:33;;;;;;;2.30;2.10;;;;;;;17.08;58.43;98885.38;5057137;28;20212;-72
2022/07/18 00:18:00;;;;;;;2.10;1.90;;;;;;;17.07;58.35;98888.19;5058430;28;20216;-72
2022/07/18 00:20:27;;;;;;;2.67;1.90;;;;;;;17.00;59.01;98887.84;5056550;28;20254;-72
2022/07/18 00:22:54;;;;;;;2.07;1.90;;;;;;;16.97;60.88;98881.91;5056376;28;20684;-73
2022/07/18 00:25:20;;;;;;;2.83;1.97;;;;;;;16.89;61.99;98884.38;5056791;28;20220;-73
2022/07/18 00:27:47;;;;;;;2.20;2.00;;;;;;;16.85;62.28;98890.94;5058514;28;20222;-73
2022/07/18 00:30:13;;;;;;;2.10;1.70;;;;;;;16.85;62.05;98894.47;5056809;28;20216;-72
2022/07/18 00:32:41;;;;;;;2.40;2.03;;;;;;;16.88;61.69;98888.84;5054945;28;20240;-72
2022/07/18 00:35:10;;;;;;;2.30;2.10;;;;;;;16.90;61.32;98892.25;5056561;28;20578;-72
2022/07/18 00:37:36;;;;;;;4.87;2.00;;;;;;;16.93;61.46;98894.66;5054041;28;20736;-72
2022/07/18 00:40:04;;;;;;;3.83;2.10;;;;;;;16.92;61.29;98889.44;5056515;28;20214;-72
2022/07/18 00:42:30;;;;;;;3.23;2.30;;;;;;;16.87;61.99;98887.16;5056082;28;20216;-72
2022/07/18 00:44:57;;;;;;;3.73;2.40;;;;;;;16.81;62.13;98885.00;5056096;28;20691;-72
2022/07/18 00:47:24;;;;;;;1.93;1.73;;;;;;;16.79;62.76;98878.94;5058276;28;20225;-72
2022/07/18 00:49:51;;;;;;;4.97;2.40;;;;;;;16.77;63.24;98880.88;5056329;28;20230;-72
2022/07/18 00:52:19;;;;;;;3.87;2.20;;;;;;;16.70;64.01;98877.00;5056189;28;20235;-72
2022/07/18 00:54:45;;;;;;;2.13;2.00;;;;;;;16.65;64.07;98883.72;5055878;28;20216;-72
2022/07/18 00:57:12;;;;;;;2.73;2.40;;;;;;;16.59;63.98;98887.72;5057897;28;20668;-72
2022/07/18 01:02:26;;;;;;;4.33;2.43;;;;;;;16.46;64.08;98881.69;5055709;28;20807;-72
2022/07/18 01:04:52;;;;;;;3.37;2.60;;;;;;;16.36;63.89;98883.38;5057731;28;20219;-72
2022/07/18 01:07:20;;;;;;;2.97;2.20;;;;;;;16.30;63.91;98880.34;5056145;28;20232;-73
2022/07/18 01:09:47;;;;;;;2.80;2.17;;;;;;;16.21;64.67;98876.59;5055634;28;20222;-71
2022/07/18 01:12:14;;;;;;;2.37;2.00;;;;;;;16.21;64.60;98876.59;5055490;28;20232;-73
2022/07/18 01:14:41;;;;;;;2.93;2.57;;;;;;;16.19;63.98;98883.88;5056991;28;20648;-72
2022/07/18 01:17:15;;;;;;;3.47;2.20;;;;;;;16.20;63.59;98882.91;5056157;28;20581;-73
2022/07/18 01:19:42;;;;;;;3.63;2.67;;;;;;;16.21;63.99;98886.44;5055561;28;20211;-73
2022/07/18 01:22:10;;;;;;;2.73;2.30;;;;;;;16.18;64.80;98874.19;5055366;28;20232;-71
2022/07/18 01:24:37;;;;;;;4.13;2.60;;;;;;;16.09;64.83;98877.56;5054746;28;20220;-73
2022/07/18 01:27:04;;;;;;;3.43;2.20;;;;;;;16.04;65.12;98874.44;5055910;28;20207;-73
2022/07/18 01:29:30;;;;;;;3.07;2.40;;;;;;;15.98;64.98;98874.91;5055677;28;20216;-73
2022/07/18 01:31:57;;;;;;;3.37;2.07;;;;;;;15.96;64.74;98872.50;5055347;28;20240;-73
2022/07/18 01:34:24;;;;;;;2.50;2.07;;;;;;;15.92;65.47;98877.22;5057317;28;20212;-73
2022/07/18 01:36:50;;;;;;;3.27;2.20;;;;;;;15.85;66.37;98877.81;5055050;28;20697;-73
2022/07/18 01:39:18;;;;;;;3.10;2.27;;;;;;;15.79;67.26;98883.63;5063159;28;20212;-74
2022/07/18 01:41:45;;;;;;;4.03;2.50;;;;;;;15.73;67.54;98884.13;5059102;28;20212;-73
2022/07/18 01:44:11;;;;;;;3.07;2.20;;;;;;;15.69;67.94;98879.97;5057057;28;20222;-74
2022/07/18 01:46:38;;;;;;;3.80;2.23;;;;;;;15.73;66.13;98878.78;5055720;28;20230;-72
2022/07/18 01:49:05;;;;;;;2.17;1.90;;;;;;;15.78;64.12;98880.16;5055648;28;20219;-72
2022/07/18 01:51:31;;;;;;;3.17;2.37;;;;;;;15.84;63.37;98884.13;5053800;28;20216;-72
2022/07/18 01:54:01;;;;;;;2.73;2.10;;;;;;;15.88;63.04;98877.59;5056118;28;20250;-71
2022/07/18 01:56:29;;;;;;;2.90;2.50;;;;;;;15.94;63.50;98877.13;5055390;28;20563;-71
2022/07/18 01:58:56;;;;;;;4.23;2.50;;;;;;;16.01;62.17;98875.66;5054996;28;20212;-72
2022/07/18 02:01:23;;;;;;;2.63;2.30;;;;;;;16.09;61.42;98882.09;5055071;28;20273;-72
2022/07/18 02:03:49;;;;;;;2.63;2.20;;;;;;;16.15;61.23;98884.25;5056066;28;20216;-71
2022/07/18 02:06:16;;;;;;;2.63;2.10;;;;;;;16.19;61.01;98878.56;5055759;28;20207;-71
2022/07/18 02:08:42;;;;;;;3.03;2.27;;;;;;;16.18;61.53;98884.00;5054997;28;20225;-71
2022/07/18 02:11:09;;;;;;;2.70;2.30;;;;;;;16.13;61.31;98881.72;5054904;28;20669;-72
2022/07/18 02:13:37;;;;;;;3.50;2.30;;;;;;;16.09;63.46;98882.91;5055648;28;20250;-72
2022/07/18 02:16:03;;;;;;;2.77;2.30;;;;;;;16.02;65.53;98885.34;5054022;28;20218;-72
2022/07/18 02:18:32;;;;;;;3.10;2.37;;;;;;;15.90;66.60;98876.50;5055035;28;20216;-72
2022/07/18 02:20:58;;;;;;;2.63;2.43;;;;;;;15.80;67.23;98893.31;5054639;28;20494;-74
2022/07/18 02:23:25;;;;;;;2.43;2.23;;;;;;;15.61;67.55;98885.94;5055569;28;20212;-74
2022/07/18 02:25:52;;;;;;;2.63;2.30;;;;;;;15.47;68.23;98887.97;5056127;28;20215;-74
2022/07/18 02:28:18;;;;;;;3.70;2.40;;;;;;;15.31;69.44;98887.38;5054897;28;20227;-74
2022/07/18 02:30:47;;;;;;;3.13;2.40;;;;;;;15.16;70.04;98891.25;5055048;28;20578;-73
2022/07/18 02:33:14;;;;;;;2.30;2.10;;;;;;;15.03;70.86;98893.97;5055220;28;20331;-73
2022/07/18 02:35:41;;;;;;;3.43;2.50;;;;;;;14.95;71.53;98887.50;5057393;28;20667;-73
2022/07/18 02:38:08;;;;;;;3.57;2.47;;;;;;;14.86;71.45;98890.88;5058768;28;20234;-72
2022/07/18 02:40:34;;;;;;;3.93;2.40;;;;;;;14.81;71.53;98893.88;5058477;28;20220;-72
2022/07/18 02:43:01;;;;;;;3.43;2.30;;;;;;;14.75;72.21;98888.16;5056974;28;20208;-72
2022/07/18 02:45:28;;;;;;;3.03;2.37;;;;;;;14.64;73.46;98891.59;5060469;28;20218;-72
2022/07/18 02:47:56;;;;;;;2.93;2.63;;;;;;;14.58;73.78;98885.88;5058656;28;20226;-72
2022/07/18 02:50:22;;;;;;;2.80;2.40;;;;;;;14.43;74.94;98887.84;5058567;28;20299;-72
2022/07/18 02:52:50;;;;;;;2.37;2.13;;;;;;;14.33;74.75;98893.94;5058134;28;20339;-72
2022/07/18 02:55:17;;;;;;;3.57;2.20;;;;;;;14.34;73.94;98898.28;5056247;28;20296;-72
2022/07/18 02:57:44;;;;;;;2.73;2.20;;;;;;;14.33;73.12;98885.97;5058393;28;20216;-72
2022/07/18 03:00:13;;;;;;;2.63;2.20;;;;;;;14.31;72.93;98891.38;5058285;28;20238;-72
2022/07/18 03:02:40;;;;;;;2.80;2.20;;;;;;;14.34;72.87;98903.63;5058404;28;20216;-72
2022/07/18 03:05:08;;;;;;;2.50;2.30;;;;;;;14.33;72.97;98893.94;5055985;28;20579;-72
2022/07/18 03:07:35;;;;;;;4.43;2.20;;;;;;;14.28;73.80;98888.09;5058077;28;20220;-72
2022/07/18 03:10:02;;;;;;;4.10;2.50;;;;;;;14.26;74.71;98898.00;5056836;28;20230;-72
2022/07/18 03:12:28;;;;;;;2.97;2.37;;;;;;;14.20;75.33;98890.47;5057860;28;20714;-72
2022/07/18 03:14:55;;;;;;;3.73;2.27;;;;;;;14.17;76.33;98890.69;5059958;28;20693;-72
2022/07/18 03:17:21;;;;;;;2.60;2.33;;;;;;;14.09;77.76;98895.66;5057762;28;20669;-72
2022/07/18 03:19:48;;;;;;;3.53;2.50;;;;;;;14.01;78.86;98890.91;5057789;28;20216;-72
2022/07/18 03:22:16;;;;;;;2.53;2.33;;;;;;;14.00;79.61;98899.00;5058115;28;20244;-72
2022/07/18 03:24:42;;;;;;;2.77;2.40;;;;;;;14.00;79.90;98899.00;5059803;28;20222;-72
2022/07/18 03:27:09;;;;;;;2.50;2.30;;;;;;;13.97;80.09;98894.75;5057546;28;20216;-72
2022/07/18 03:29:35;;;;;;;3.07;2.20;;;;;;;13.96;80.59;98913.44;5066823;28;20589;-72
2022/07/18 03:32:02;;;;;;;3.10;2.37;;;;;;;13.96;80.78;98911.66;5060088;28;20216;-72
2022/07/18 03:34:28;;;;;;;2.90;2.43;;;;;;;13.99;80.72;98905.28;5058159;28;20356;-72
2022/07/18 03:36:55;;;;;;;3.50;2.97;;;;;;;13.99;80.76;98898.13;5057640;28;20211;-72
2022/07/18 03:39:23;;;;;;;3.10;2.50;;;;;;;14.05;79.97;98903.00;5057349;28;20776;-72
2022/07/18 03:41:51;;;;;;;2.77;2.30;;;;;;;13.94;81.12;98900.25;5057683;28;20212;-72
2022/07/18 03:44:18;;;;;;;3.50;2.70;;;;;;;13.89;81.92;98904.22;5059744;28;20260;-73
2022/07/18 03:46:44;;;;;;;3.13;2.37;;;;;;;13.86;82.07;98907.06;5056742;28;20230;-72
2022/07/18 03:49:11;;;;;;;3.30;2.30;;;;;;;13.81;82.83;98902.09;5056844;28;20222;-72
2022/07/18 03:51:37;;;;;;;2.87;2.27;;;;;;;13.88;81.97;98902.53;5057382;28;20216;-72
2022/07/18 03:54:04;;;;;;;2.87;2.27;;;;;;;13.89;81.90;98910.38;5059136;28;20235;-72
2022/07/18 03:56:31;;;;;;;2.37;2.17;;;;;;;13.95;81.52;98903.78;5043457;28;20216;-72
2022/07/18 03:58:58;;;;;;;2.00;1.90;;;;;;;14.00;81.58;98899.81;5057497;28;20234;-72
2022/07/18 04:01:24;;;;;;;3.13;2.40;;;;;;;13.98;81.33;98895.56;5055526;28;20212;-72
2022/07/18 04:03:51;;;;;;;2.47;2.20;;;;;;;14.00;81.08;98893.69;5059062;28;20220;-72
2022/07/18 04:06:17;;;;;;;2.37;2.17;;;;;;;14.04;80.27;98889.81;5056942;28;20712;-72
2022/07/18 04:08:44;;;;;;;2.67;2.00;;;;;;;14.06;79.91;98887.94;5057083;28;20218;-72
2022/07/18 04:11:11;;;;;;;2.77;2.20;;;;;;;14.09;79.55;98898.31;5057160;28;20560;-72
2022/07/18 04:13:39;;;;;;;2.30;2.10;;;;;;;14.16;79.28;98894.25;5058179;28;20236;-72
2022/07/18 04:16:05;;;;;;;3.93;2.30;;;;;;;14.17;79.59;98890.69;5057406;28;20212;-72
2022/07/18 04:18:32;;;;;;;3.40;2.47;;;;;;;14.24;79.18;98894.63;5056904;28;20212;-72
2022/07/18 04:20:58;;;;;;;2.87;2.40;;;;;;;14.26;79.50;98896.22;5056879;28;20236;-72
2022/07/18 04:23:25;;;;;;;3.00;2.40;;;;;;;14.26;79.94;98895.34;5057751;28;20220;-72
2022/07/18 04:25:52;;;;;;;2.43;2.23;;;;;;;14.33;79.52;98907.25;5056543;28;20222;-72
2022/07/18 04:28:18;;;;;;;2.60;2.27;;;;;;;14.36;79.53;98897.22;5056212;28;20212;-72
2022/07/18 04:30:46;;;;;;;2.50;2.30;;;;;;;14.42;79.58;98890.63;5056713;28;20214;-72
2022/07/18 04:33:13;;;;;;;2.87;2.47;;;;;;;14.49;79.44;98890.06;5056802;28;20732;-72
2022/07/18 04:35:41;;;;;;;2.83;2.40;;;;;;;14.55;79.44;98888.78;5057926;28;20212;-72
2022/07/18 04:38:09;;;;;;;2.40;2.20;;;;;;;14.66;79.10;98884.34;5056369;28;20300;-72
2022/07/18 04:40:36;;;;;;;3.43;2.33;;;;;;;14.76;79.27;98888.03;5056467;28;20243;-72
2022/07/18 04:43:03;;;;;;;2.90;2.60;;;;;;;14.85;79.54;98890.00;5057109;28;20222;-72
2022/07/18 04:45:31;;;;;;;3.57;2.50;;;;;;;14.93;79.61;98886.78;5057388;28;20212;-72
2022/07/18 04:47:59;;;;;;;2.90;2.67;;;;;;;15.00;79.98;98888.00;5056306;28;20219;-72
2022/07/18 04:50:26;;;;;;;3.83;2.70;;;;;;;15.24;79.56;98876.38;5056334;28;20221;-73
2022/07/18 04:52:53;;;;;;;6.10;3.13;;;;;;;15.58;78.32;98890.66;5054889;28;20236;-72
2022/07/18 04:55:22;;;;;;;3.00;2.70;;;;;;;15.69;78.45;98893.31;5057508;28;20216;-72
2022/07/18 04:57:49;;;;;;;4.67;2.73;;;;;;;15.64;79.23;98892.84;5056151;28;20212;-72
2022/07/18 05:00:17;;;;;;;3.67;2.77;;;;;;;15.63;80.03;98893.81;5055940;28;20240;-72
2022/07/18 05:02:45;;;;;;;4.40;3.30;;;;;;;15.68;80.36;98886.28;5056660;28;20744;-72
2022/07/18 05:05:14;;;;;;;3.67;3.03;;;;;;;15.82;79.83;98883.41;5056822;28;20588;-72
2022/07/18 05:07:42;;;;;;;4.93;3.13;;;;;;;16.01;79.61;98884.50;5056001;28;20223;-72
2022/07/18 05:10:10;;;;;;;5.43;3.27;;;;;;;16.16;78.88;98891.28;5055750;28;20227;-72
2022/07/18 05:12:37;;;;;;;4.40;3.13;;;;;;;16.39;77.85;98893.84;5056779;28;20218;-72
2022/07/18 05:15:06;;;;;;;3.53;3.10;;;;;;;16.64;77.06;98888.19;5056358;28;20586;-72
2022/07/18 05:17:33;;;;;;;3.10;2.90;;;;;;;17.17;74.77;98887.28;5055727;28;20208;-71
2022/07/18 05:20:00;;;;;;;3.53;3.23;;;;;;;18.14;69.60;98883.25;5053855;28;20670;-72
2022/07/18 05:22:28;;;;;;;3.77;3.30;;;;;;;19.16;64.82;98884.63;5056423;28;20251;-71
2022/07/18 05:24:54;;;;;;;4.53;2.90;;;;;;;20.14;60.86;98883.34;5056242;28;20216;-72
2022/07/18 05:27:21;;;;;;;3.50;2.97;;;;;;;21.02;57.37;98889.81;5055424;28;20666;-72
2022/07/18 05:29:47;;;;;;;4.50;3.30;;;;;;;21.74;54.00;98891.31;5055401;28;20212;-71
2022/07/18 05:32:14;;;;;;;4.33;3.17;;;;;;;22.38;52.08;98886.28;5056096;28;20212;-71
2022/07/18 05:34:40;;;;;;;4.73;3.40;;;;;;;22.96;50.50;98892.59;5056426;28;20347;-71
2022/07/18 05:37:07;;;;;;;4.00;3.10;;;;;;;23.50;49.05;98885.75;5055412;28;20235;-71
2022/07/18 05:39:36;;;;;;;4.57;3.20;;;;;;;23.94;47.54;98885.25;5055121;28;20212;-71
2022/07/18 05:42:02;;;;;;;3.00;2.73;;;;;;;24.36;46.36;98888.53;5055957;28;20243;-71
2022/07/18 05:44:29;;;;;;;3.90;3.00;;;;;;;24.76;45.47;98882.97;5055030;28;20217;-71
2022/07/18 05:46:58;;;;;;;5.53;2.47;;;;;;;25.12;43.77;98889.53;5055006;28;20686;-71
2022/07/18 05:49:24;;;;;;;3.03;2.57;;;;;;;25.44;43.18;98893.91;5055087;28;20224;-71
2022/07/18 05:51:51;;;;;;;4.03;3.00;;;;;;;25.81;42.59;98892.06;5055663;28;20559;-71
2022/07/18 05:54:19;;;;;;;3.70;2.90;;;;;;;26.08;42.26;98894.19;5056431;28;20234;-72
2022/07/18 05:56:48;;;;;;;3.77;2.70;;;;;;;26.09;41.61;98893.16;5053322;28;20220;-73
2022/07/18 05:59:15;;;;;;;3.87;2.90;;;;;;;26.21;41.31;98888.97;5053837;28;20212;-72
2022/07/18 06:01:42;;;;;;;3.23;2.73;;;;;;;26.41;41.16;98898.25;5055168;28;20696;-73
2022/07/18 06:04:08;;;;;;;4.03;2.60;;;;;;;26.63;41.07;98897.31;5056557;28;20211;-72
2022/07/18 06:06:35;;;;;;;3.13;2.80;;;;;;;26.97;40.36;98892.13;5054855;28;20223;-71
2022/07/18 06:09:02;;;;;;;4.63;2.60;;;;;;;27.28;39.32;98895.44;5054782;28;20695;-72
2022/07/18 06:11:28;;;;;;;3.00;2.53;;;;;;;27.58;38.90;98891.56;5055582;28;20215;-72
2022/07/18 06:13:56;;;;;;;5.80;2.97;;;;;;;27.74;38.43;98888.56;5061068;28;20245;-73
2022/07/18 06:16:23;;;;;;;3.75;2.42;;;;;;;27.96;38.23;98893.81;5059044;28;20254;-73
2022/07/18 06:18:50;;;;;;;2.70;2.50;;;;;;;28.05;37.18;98895.34;5059091;28;20220;-73
2022/07/18 06:21:16;;;;;;;3.15;2.55;;;;;;;28.20;37.27;98889.78;5059059;28;20240;-72
2022/07/18 06:23:43;;;;;;;3.83;2.70;;;;;;;28.37;37.21;98885.75;5060886;28;20219;-72
2022/07/18 06:26:09;;;;;;;3.05;2.60;;;;;;;28.61;36.80;98890.72;5058963;28;20227;-73
2022/07/18 06:28:36;;;;;;;2.45;2.25;;;;;;;28.89;36.60;98889.59;5058813;28;20212;-72
2022/07/18 06:31:03;;;;;;;2.70;2.40;;;;;;;29.03;35.76;98895.97;5058665;28;20226;-72
2022/07/18 06:33:30;;;;;;;3.20;2.53;;;;;;;29.19;35.10;98890.13;5060921;28;20234;-71
2022/07/18 06:35:57;;;;;;;4.72;2.55;;;;;;;29.31;35.10;98893.94;5057803;28;20218;-71
2022/07/18 06:38:24;;;;;;;4.40;2.40;;;;;;;29.42;34.00;98893.34;5049261;28;20220;-71
2022/07/18 06:40:51;;;;;;;3.40;2.30;;;;;;;29.41;34.62;98889.75;5058662;28;20216;-71
2022/07/18 06:43:19;;;;;;;3.83;2.15;;;;;;;29.51;34.86;98890.22;5060800;28;20293;-71
2022/07/18 06:45:46;;;;;;;3.15;2.38;;;;;;;29.58;34.46;98890.25;5058317;28;20704;-71
2022/07/18 06:48:14;;;;;;;3.35;2.30;;;;;;;29.71;34.55;98890.28;5058329;28;20306;-71
2022/07/18 06:50:41;;;;;;;3.75;2.58;;;;;;;29.84;34.19;98884.81;5058275;28;20222;-71
2022/07/18 06:53:08;;;;;;;2.97;2.63;;;;;;;29.91;33.36;98883.78;5060366;28;20207;-71
2022/07/18 06:55:34;;;;;;;2.72;2.40;;;;;;;29.92;33.68;98887.31;5058274;28;20239;-71
2022/07/18 06:58:01;;;;;;;4.65;2.80;;;;;;;29.91;33.86;98893.81;5058084;28;20652;-72
2022/07/18 07:00:28;;;;;;;5.82;2.40;;;;;;;29.79;34.55;98881.88;5058550;28;20220;-72
2022/07/18 07:02:54;;;;;;;2.60;1.92;;;;;;;29.51;34.45;98883.91;5058471;28;20307;-72
2022/07/18 07:05:22;;;;;;;3.30;2.60;;;;;;;29.01;35.36;98884.41;5058310;28;20215;-73
2022/07/18 07:07:49;;;;;;;3.58;2.90;;;;;;;28.38;36.24;98884.72;5057962;28;20216;-73
2022/07/18 07:10:17;;;;;;;3.55;2.72;;;;;;;27.27;38.29;98883.72;5057894;28;20216;-73
2022/07/18 07:12:46;;;;;;;2.95;2.50;;;;;;;26.07;40.64;98881.69;5059952;28;20299;-72
2022/07/18 07:15:14;;;;;;;2.83;2.55;;;;;;;25.24;42.00;98882.72;5057948;28;20603;-73
2022/07/18 07:17:41;;;;;;;3.75;2.30;;;;;;;24.80;43.41;98878.06;5057792;28;20573;-72
2022/07/18 07:20:09;;;;;;;4.05;2.65;;;;;;;24.42;44.52;98879.72;5057797;28;20209;-73
2022/07/18 07:22:43;;;;;;;3.28;2.90;;;;;;;24.21;44.88;98882.16;5071830;28;20211;-71
2022/07/18 07:25:10;;;;;;;2.88;2.40;;;;;;;24.05;44.90;98875.94;5057705;28;20214;-71
2022/07/18 07:27:37;;;;;;;3.97;2.53;;;;;;;23.94;45.26;98869.06;5057995;28;20579;-72
2022/07/18 07:30:05;;;;;;;2.87;2.30;;;;;;;23.93;46.00;98867.38;5056243;28;20220;-72
2022/07/18 07:32:35;;;;;;;5.10;2.70;;;;;;;23.94;46.01;98869.06;5060064;28;20216;-72
2022/07/18 07:35:01;;;;;;;2.50;2.30;;;;;;;23.95;45.45;98870.75;5057577;28;20660;-72
2022/07/18 07:37:28;;;;;;;3.17;2.30;;;;;;;23.97;44.54;98870.56;5057380;28;20211;-72
2022/07/18 07:39:56;;;;;;;4.07;2.40;;;;;;;23.96;43.99;98872.41;5057560;28;20215;-72
2022/07/18 07:42:22;;;;;;;2.75;2.33;;;;;;;24.07;43.77;98877.47;5061245;28;20215;-72
2022/07/18 07:44:49;;;;;;;3.40;2.57;;;;;;;24.18;44.55;98871.69;5067569;28;20217;-72
2022/07/18 07:47:15;;;;;;;2.57;2.37;;;;;;;24.26;44.03;98871.66;5057355;28;20653;-72
2022/07/18 07:49:42;;;;;;;3.42;2.38;;;;;;;24.32;43.08;98862.88;5057672;28;20219;-72
2022/07/18 07:52:10;;;;;;;3.83;2.30;;;;;;;24.51;43.65;98862.44;5059502;28;20298;-72
2022/07/18 07:54:36;;;;;;;2.60;2.40;;;;;;;24.60;42.52;98868.69;5055692;28;20239;-71
2022/07/18 07:57:04;;;;;;;1.95;1.85;;;;;;;24.66;42.85;98866.13;5057188;28;20587;-72
2022/07/18 07:59:31;;;;;;;2.67;2.05;;;;;;;24.79;41.54;98863.69;5057179;28;20306;-71
2022/07/18 08:01:58;;;;;;;2.65;2.22;;;;;;;24.88;42.67;98861.78;5059349;28;20226;-72
2022/07/18 08:04:25;;;;;;;4.05;1.90;;;;;;;24.94;40.99;98858.38;5056935;28;20681;-71
2022/07/18 08:06:52;;;;;;;2.33;2.10;;;;;;;25.06;40.54;98857.78;5056880;28;20695;-71
2022/07/18 08:09:18;;;;;;;2.17;2.00;;;;;;;25.20;39.92;98862.44;5057325;28;20215;-71
2022/07/18 08:11:45;;;;;;;3.58;2.00;;;;;;;25.27;38.60;98866.13;5059137;28;20708;-72
2022/07/18 08:14:13;;;;;;;2.13;1.95;;;;;;;25.37;38.24;98860.47;5057052;28;20655;-71
2022/07/18 08:16:39;;;;;;;2.35;2.00;;;;;;;25.47;39.51;98852.94;5056927;28;20262;-72
2022/07/18 08:19:06;;;;;;;1.95;1.85;;;;;;;25.55;38.45;98859.09;5056622;28;20674;-72
2022/07/18 08:21:33;;;;;;;2.40;2.20;;;;;;;25.66;38.78;98850.56;5057205;28;20243;-71
2022/07/18 08:24:00;;;;;;;3.40;2.20;;;;;;;25.71;39.45;98856.28;5056906;28;20218;-72
2022/07/18 08:26:26;;;;;;;2.72;2.00;;;;;;;25.75;38.92;98854.88;5056534;28;20678;-71
2022/07/18 08:28:53;;;;;;;2.70;1.98;;;;;;;25.85;39.12;98850.03;5056947;28;20212;-72
2022/07/18 08:31:21;;;;;;;3.10;2.65;;;;;;;26.00;39.40;98847.38;5058403;28;20665;-71
2022/07/18 08:33:48;;;;;;;3.33;2.10;;;;;;;26.14;39.35;98854.69;5042014;28;20294;-71
2022/07/18 08:36:14;;;;;;;2.47;2.00;;;;;;;26.22;38.93;98844.56;5056546;28;20281;-71
2022/07/18 08:38:41;;;;;;;3.17;2.15;;;;;;;26.28;38.21;98851.94;5056714;28;20212;-71
2022/07/18 08:41:09;;;;;;;6.03;2.30;;;;;;;26.33;38.55;98843.28;5057732;28;20218;-71
2022/07/18 08:43:35;;;;;;;2.88;2.00;;;;;;;26.44;38.41;98849.06;5056629;28;20239;-72
2022/07/18 08:46:04;;;;;;;3.30;2.13;;;;;;;26.49;38.01;98843.91;5055653;28;20238;-71
2022/07/18 08:48:32;;;;;;;2.28;2.08;;;;;;;26.64;36.95;98846.66;5055917;28;20245;-71
2022/07/18 08:51:00;;;;;;;2.85;1.95;;;;;;;26.62;35.64;98844.13;5057811;28;20215;-71
2022/07/18 08:53:28;;;;;;;4.13;2.05;;;;;;;26.69;37.24;98855.06;5045864;28;20222;-71
2022/07/18 08:55:54;;;;;;;2.13;1.92;;;;;;;26.80;34.96;98841.84;5056256;28;20244;-71
2022/07/18 08:58:21;;;;;;;2.58;2.38;;;;;;;26.87;33.73;98853.59;5056516;28;20219;-72
2022/07/18 09:00:47;;;;;;;2.03;1.83;;;;;;;26.91;32.45;98854.91;5057513;28;20216;-71
2022/07/18 09:03:14;;;;;;;2.60;1.98;;;;;;;26.84;32.92;98858.56;5055261;28;20211;-71
2022/07/18 09:05:42;;;;;;;3.25;2.10;;;;;;;26.92;35.50;98851.16;5055374;28;20223;-71
2022/07/18 09:08:11;;;;;;;4.80;2.20;;;;;;;27.12;35.16;98852.19;5055447;28;20262;-71
2022/07/18 09:10:59;;;;;;;2.67;2.20;;;;;;;27.14;34.18;98852.88;5056958;28;20239;-71
2022/07/18 09:13:37;;;;;;;3.58;1.85;;;;;;;27.26;34.48;98864.91;5045543;28;20565;-72
2022/07/18 09:16:06;;;;;;;2.42;2.22;;;;;;;27.42;35.38;98853.78;5049378;28;20763;-72
2022/07/18 09:18:34;;;;;;;2.92;2.28;;;;;;;27.62;35.35;98854.81;5057520;28;20303;-72
2022/07/18 09:21:04;;;;;;;2.25;2.05;;;;;;;27.63;34.60;98849.19;5048469;28;20698;-73
2022/07/18 09:23:31;;;;;;;5.43;2.30;;;;;;;27.79;34.87;98858.97;5055237;28;20220;-73
2022/07/18 09:25:59;;;;;;;4.13;2.10;;;;;;;27.87;33.06;98853.38;5055421;28;20684;-73
2022/07/18 09:28:26;;;;;;;4.70;2.00;;;;;;;27.94;34.14;98848.84;5057743;28;20212;-73
2022/07/18 09:30:52;;;;;;;2.63;2.00;;;;;;;27.97;32.60;98848.44;5055612;28;20209;-73
2022/07/18 09:33:20;;;;;;;2.97;2.00;;;;;;;28.06;32.65;98844.53;5055649;28;20216;-73
2022/07/18 09:35:49;;;;;;;2.75;2.00;;;;;;;28.12;33.46;98841.84;5055275;28;20240;-74
2022/07/18 09:38:18;;;;;;;2.33;1.95;;;;;;;28.24;33.20;98845.69;5056579;28;20222;-73
2022/07/18 09:40:46;;;;;;;4.53;2.10;;;;;;;28.40;33.89;98844.56;5054256;28;20219;-73
2022/07/18 09:43:14;;;;;;;2.00;1.80;;;;;;;28.60;33.45;98842.75;5055336;28;20589;-72
2022/07/18 09:45:44;;;;;;;2.30;1.83;;;;;;;28.66;33.42;98845.53;5055129;28;20220;-72
2022/07/18 09:48:12;;;;;;;4.10;2.25;;;;;;;28.80;31.70;98843.72;5057517;28;20217;-74
2022/07/18 09:50:41;;;;;;;2.10;1.90;;;;;;;28.75;31.93;98832.59;5055400;28;20222;-72
2022/07/18 09:53:14;;;;;;;2.20;2.00;;;;;;;28.74;31.13;98836.34;5055443;28;20223;-73
2022/07/18 09:55:47;;;;;;;1.90;1.80;;;;;;;28.70;31.17;98835.94;5054981;28;20719;-72
2022/07/18 09:58:17;;;;;;;1.95;1.83;;;;;;;28.61;29.97;98830.88;5055914;28;20223;-73
2022/07/18 10:00:44;;;;;;;3.35;1.83;;;;;;;28.66;30.22;98833.78;5055363;28;20216;-72
2022/07/18 10:03:11;;;;;;;1.95;1.85;;;;;;;28.73;31.53;98830.06;5055013;28;20291;-73
2022/07/18 10:05:39;;;;;;;2.22;1.90;;;;;;;28.91;31.40;98826.78;5054321;28;20218;-73
2022/07/18 10:08:09;;;;;;;2.97;1.70;;;;;;;29.04;31.81;98829.56;5055862;28;20208;-73
2022/07/18 10:10:37;;;;;;;4.47;2.13;;;;;;;29.11;31.34;98833.16;5055092;28;20207;-73
2022/07/18 10:13:06;;;;;;;1.90;1.80;;;;;;;29.19;32.02;98828.34;5045792;28;20217;-73
2022/07/18 10:15:34;;;;;;;2.15;1.80;;;;;;;29.32;32.04;98830.25;5054476;28;20235;-73
2022/07/18 10:18:02;;;;;;;1.98;1.83;;;;;;;29.41;30.38;98818.94;5054774;28;20288;-72
2022/07/18 10:20:33;;;;;;;2.03;1.92;;;;;;;29.40;29.81;98825.44;5054988;28;20238;-73
2022/07/18 10:23:07;;;;;;;1.95;1.85;;;;;;;29.39;29.29;98821.03;5054921;28;20212;-73
2022/07/18 10:25:33;;;;;;;3.90;1.95;;;;;;;29.44;30.44;98828.56;5057087;28;20211;-72
2022/07/18 10:28:08;;;;;;;2.45;2.00;;;;;;;29.54;29.45;98829.03;5054973;28;20218;-73
2022/07/18 10:30:42;;;;;;;3.30;1.60;;;;;;;29.61;31.13;98835.34;5053099;28;20695;-72
2022/07/18 10:33:38;;;;;;;2.85;1.90;;;;;;;29.64;30.56;98824.84;5055843;28;20215;-72
2022/07/18 10:36:06;;;;;;;3.70;1.70;;;;;;;29.68;29.33;98825.25;5043496;28;20766;-73
2022/07/18 10:38:33;;;;;;;1.95;1.77;;;;;;;29.69;29.93;98826.94;5054551;28;20674;-73
2022/07/18 10:41:16;;;;;;;2.28;1.77;;;;;;;29.61;27.75;98824.44;5055573;28;20216;-73
2022/07/18 10:43:45;;;;;;;3.28;1.90;;;;;;;29.62;27.13;98820.66;5041660;28;20224;-73
2022/07/18 10:46:13;;;;;;;1.92;1.73;;;;;;;29.63;29.38;98816.88;5054812;28;20649;-73
2022/07/18 10:49:01;;;;;;;2.20;1.77;;;;;;;29.69;30.67;98821.50;5054467;28;20216;-72
2022/07/18 10:51:35;;;;;;;2.38;2.00;;;;;;;29.72;29.99;98821.09;5040692;28;20222;-73
2022/07/18 10:54:07;;;;;;;2.15;1.90;;;;;;;29.72;27.65;98811.00;5054642;28;20216;-73
2022/07/18 10:57:06;;;;;;;1.80;1.70;;;;;;;29.73;27.38;98809.97;5054177;28;20240;-72
2022/07/18 10:59:35;;;;;;;3.13;1.80;;;;;;;29.66;29.98;98806.41;5046217;28;20688;-72
2022/07/18 11:02:05;;;;;;;2.13;1.55;;;;;;;29.77;30.72;98802.22;5058395;28;20219;-73
2022/07/18 11:04:35;;;;;;;2.17;1.67;;;;;;;29.95;29.98;98805.13;5058341;28;20700;-73
2022/07/18 11:07:05;;;;;;;3.38;1.90;;;;;;;29.93;27.90;98801.75;5059243;28;20685;-73
2022/07/18 11:09:36;;;;;;;2.33;1.65;;;;;;;29.99;28.54;98798.19;5058291;28;20212;-72
2022/07/18 11:12:23;;;;;;;1.90;1.80;;;;;;;30.13;30.44;98799.88;5058234;28;20612;-73
2022/07/18 11:15:08;;;;;;;3.20;2.00;;;;;;;30.20;28.67;98787.88;5056335;28;20207;-72
2022/07/18 11:18:00;;;;;;;2.10;1.77;;;;;;;30.30;29.79;98791.00;5058116;28;20238;-72
2022/07/18 11:20:38;;;;;;;2.28;1.80;;;;;;;30.43;28.95;98790.97;5056221;28;20297;-72
2022/07/18 11:23:14;;;;;;;3.92;1.63;;;;;;;30.50;28.79;98793.69;5043712;28;20591;-73
2022/07/18 11:25:41;;;;;;;1.88;1.70;;;;;;;30.54;28.46;98792.16;5057663;28;20253;-73
2022/07/18 11:28:08;;;;;;;2.47;1.58;;;;;;;30.51;26.60;98784.44;5057955;28;20212;-73
2022/07/18 11:30:37;;;;;;;1.98;1.60;;;;;;;30.43;26.90;98779.19;5059663;28;20225;-73
2022/07/18 11:33:04;;;;;;;1.73;1.60;;;;;;;30.47;26.78;98772.28;5057942;28;20211;-73
2022/07/18 11:35:31;;;;;;;1.70;1.60;;;;;;;30.46;28.39;98773.31;5053471;28;20242;-73
2022/07/18 11:38:05;;;;;;;2.00;1.40;;;;;;;30.58;29.74;98768.88;5053887;28;20214;-73
2022/07/18 11:40:31;;;;;;;1.85;1.67;;;;;;;30.59;29.10;98767.81;5057366;28;20576;-73